createdAt,value
2022-08-20T00:02:32.249Z,25.70
2022-08-20T00:05:45.151Z,23.05
2022-08-20T00:08:51.721Z,25.75
2022-08-20T00:11:57.410Z,23.10
2022-08-20T00:15:03.180Z,26.07
2022-08-20T00:18:12.445Z,28.12
2022-08-20T00:21:20.783Z,19.32
2022-08-20T00:24:26.804Z,27.05
2022-08-20T00:27:32.704Z,23.85
2022-08-20T00:30:39.663Z,24.82
2022-08-20T00:33:45.529Z,25.32
2022-08-20T00:36:51.621Z,22.00
2022-08-20T00:39:57.218Z,22.13
2022-08-20T00:43:07.981Z,22.27
2022-08-20T00:46:15.182Z,25.77
2022-08-20T00:49:23.874Z,25.60
2022-08-20T00:52:31.371Z,23.73
2022-08-20T00:55:37.584Z,24.05
2022-08-20T00:58:42.047Z,20.50
2022-08-20T01:01:55.058Z,26.52
2022-08-20T01:04:58.657Z,27.80
2022-08-20T01:08:05.156Z,25.35
2022-08-20T01:11:13.575Z,22.82
2022-08-20T01:14:27.998Z,26.97
2022-08-20T01:17:39.303Z,20.88
2022-08-20T01:20:50.823Z,22.17
2022-08-20T01:24:10.048Z,23.47
2022-08-20T01:27:18.060Z,23.22
2022-08-20T01:30:23.288Z,21.02
2022-08-20T01:33:28.828Z,24.40
2022-08-20T01:36:43.021Z,26.05
2022-08-20T01:39:49.139Z,29.07
2022-08-20T01:42:58.747Z,33.67
2022-08-20T01:46:06.861Z,27.45
2022-08-20T01:49:13.669Z,24.72
2022-08-20T01:52:22.046Z,25.25
2022-08-20T01:55:28.657Z,28.02
2022-08-20T01:58:36.289Z,25.05
2022-08-20T02:01:50.940Z,19.70
2022-08-20T02:04:57.655Z,22.37
2022-08-20T02:08:03.412Z,22.42
2022-08-20T02:11:09.599Z,25.45
2022-08-20T02:14:15.261Z,24.00
2022-08-20T02:17:22.060Z,18.27
2022-08-20T02:20:33.593Z,20.08
2022-08-20T02:23:40.248Z,22.82
2022-08-20T02:26:45.853Z,23.18
2022-08-20T02:29:51.705Z,21.95
2022-08-20T02:32:58.066Z,24.57
2022-08-20T02:36:04.690Z,26.57
2022-08-20T02:39:10.443Z,24.43
2022-08-20T02:42:15.995Z,23.80
2022-08-20T02:45:22.324Z,23.62
2022-08-20T02:48:31.308Z,22.30
2022-08-20T02:51:36.310Z,22.98
2022-08-20T02:54:42.717Z,23.65
2022-08-20T02:57:48.538Z,19.50
2022-08-20T03:00:56.985Z,17.15
2022-08-20T03:04:04.254Z,23.27
2022-08-20T03:07:09.618Z,17.48
2022-08-20T03:10:15.589Z,18.15
2022-08-20T03:13:20.813Z,24.07
2022-08-20T03:16:26.331Z,20.08
2022-08-20T03:19:33.325Z,17.50
2022-08-20T03:22:39.456Z,20.32
2022-08-20T03:25:44.813Z,22.35
2022-08-20T03:28:50.224Z,19.12
2022-08-20T03:31:55.959Z,21.45
2022-08-20T03:35:00.980Z,18.52
2022-08-20T03:38:06.549Z,21.05
2022-08-20T03:41:12.934Z,25.02
2022-08-20T03:44:19.620Z,21.12
2022-08-20T03:47:25.439Z,16.82
2022-08-20T03:50:31.579Z,21.70
2022-08-20T03:53:39.153Z,21.02
2022-08-20T03:56:44.601Z,21.70
2022-08-20T03:59:49.798Z,23.32
2022-08-20T04:02:56.973Z,21.45
2022-08-20T04:06:02.933Z,21.93
2022-08-20T04:09:09.752Z,20.92
2022-08-20T04:12:18.888Z,22.62
2022-08-20T04:15:26.099Z,18.90
2022-08-20T04:18:32.898Z,23.90
2022-08-20T04:21:38.651Z,17.45
2022-08-20T04:24:44.890Z,18.75
2022-08-20T04:27:56.169Z,23.25
2022-08-20T04:31:01.754Z,21.40
2022-08-20T04:34:07.436Z,27.65
2022-08-20T04:37:16.756Z,29.00
2022-08-20T04:40:42.565Z,33.90
2022-08-20T04:43:50.364Z,32.38
2022-08-20T04:46:56.706Z,27.45
2022-08-20T04:50:04.520Z,21.30
2022-08-20T04:53:11.210Z,23.57
2022-08-20T04:56:17.112Z,26.12
2022-08-20T04:59:22.745Z,30.25
2022-08-20T05:02:28.307Z,31.75
2022-08-20T05:05:34.926Z,22.93
2022-08-20T05:08:40.298Z,35.68
2022-08-20T05:11:47.069Z,24.23
2022-08-20T05:14:53.947Z,35.98
2022-08-20T05:18:00.711Z,22.42
2022-08-20T05:21:08.554Z,43.73
2022-08-20T05:24:14.448Z,31.73
2022-08-20T05:27:24.546Z,31.17
2022-08-20T05:30:27.717Z,24.82
2022-08-20T05:33:28.950Z,43.90
2022-08-20T05:36:22.581Z,30.97
2022-08-20T05:39:27.119Z,33.38
2022-08-20T05:42:33.628Z,26.70
2022-08-20T05:45:38.959Z,30.62
2022-08-20T05:48:44.788Z,35.58
2022-08-20T05:51:50.493Z,42.43
2022-08-20T05:54:57.170Z,42.50
2022-08-20T05:58:02.768Z,23.77
2022-08-20T06:01:09.695Z,31.52
2022-08-20T06:04:31.628Z,36.68
2022-08-20T06:07:37.419Z,34.65
2022-08-20T06:10:43.741Z,21.87
2022-08-20T06:13:49.905Z,32.53
2022-08-20T06:16:57.719Z,31.82
2022-08-20T06:20:03.436Z,31.82
2022-08-20T06:23:10.836Z,36.17
2022-08-20T06:26:16.030Z,31.35
2022-08-20T06:29:17.003Z,41.95
2022-08-20T06:32:32.147Z,45.98
2022-08-20T06:35:29.539Z,29.60
2022-08-20T06:38:35.295Z,31.70
2022-08-20T06:41:42.206Z,37.25
2022-08-20T06:44:47.671Z,41.23
2022-08-20T06:47:57.639Z,36.15
2022-08-20T06:51:03.250Z,32.83
2022-08-20T06:54:08.708Z,22.80
2022-08-20T06:57:13.846Z,41.58
2022-08-20T07:00:23.802Z,44.05
2022-08-20T07:03:29.883Z,45.90
2022-08-20T07:06:35.803Z,40.15
2022-08-20T07:09:42.569Z,29.35
2022-08-20T07:12:48.466Z,30.68
2022-08-20T07:15:56.421Z,38.53
2022-08-20T07:19:01.965Z,28.98
2022-08-20T07:22:06.789Z,30.92
2022-08-20T07:25:04.957Z,34.13
2022-08-20T07:28:16.717Z,25.57
2022-08-20T07:31:42.111Z,39.65
2022-08-20T07:34:48.401Z,30.02
2022-08-20T07:37:55.851Z,29.72
2022-08-20T07:41:02.189Z,37.98
2022-08-20T07:44:08.017Z,22.70
2022-08-20T07:47:15.826Z,30.45
2022-08-20T07:50:22.186Z,28.60
2022-08-20T07:53:26.949Z,25.17
2022-08-20T07:56:35.622Z,37.65
2022-08-20T07:59:42.339Z,26.15
2022-08-20T08:02:48.921Z,29.80
2022-08-20T08:06:01.281Z,24.60
2022-08-20T08:09:08.464Z,26.48
2022-08-20T08:12:15.468Z,36.42
2022-08-20T08:15:24.057Z,28.85
2022-08-20T08:18:36.006Z,23.38
2022-08-20T08:21:41.409Z,27.02
2022-08-20T08:24:57.446Z,27.77
2022-08-20T08:27:55.588Z,15.83
2022-08-20T08:31:02.434Z,30.27
2022-08-20T08:34:07.935Z,22.05
2022-08-20T08:37:13.650Z,18.32
2022-08-20T08:40:20.527Z,24.12
2022-08-20T08:43:31.204Z,19.75
2022-08-20T08:46:38.844Z,18.85
2022-08-20T08:49:47.392Z,23.22
2022-08-20T08:52:53.439Z,21.30
2022-08-20T08:56:00.031Z,25.90
2022-08-20T08:59:04.825Z,21.57
2022-08-20T09:02:12.908Z,23.40
2022-08-20T09:05:22.309Z,15.80
2022-08-20T09:08:30.114Z,17.95
2022-08-20T09:11:37.667Z,18.90
2022-08-20T09:14:45.063Z,15.35
2022-08-20T09:17:50.699Z,18.70
2022-08-20T09:20:57.655Z,20.05
2022-08-20T09:24:03.501Z,21.68
2022-08-20T09:27:09.312Z,17.07
2022-08-20T09:32:50.214Z,23.45
2022-08-20T09:35:56.638Z,15.63
2022-08-20T09:39:03.108Z,19.27
2022-08-20T09:42:08.784Z,16.50
2022-08-20T09:45:14.674Z,11.08
2022-08-20T09:48:21.322Z,16.90
2022-08-20T09:51:27.976Z,15.70
2022-08-20T09:54:36.429Z,19.25
2022-08-20T09:57:42.045Z,20.17
2022-08-20T10:00:47.469Z,15.68
2022-08-20T10:03:55.348Z,22.42
2022-08-20T10:07:01.225Z,20.17
2022-08-20T10:10:07.490Z,20.25
2022-08-20T10:13:13.397Z,18.80
2022-08-20T10:16:19.389Z,20.97
2022-08-20T10:19:24.893Z,25.23
2022-08-20T10:22:23.175Z,29.60
2022-08-20T10:25:24.872Z,21.87
2022-08-20T10:28:29.945Z,26.12
2022-08-20T10:31:34.821Z,22.73
2022-08-20T10:34:40.152Z,15.45
2022-08-20T10:37:45.957Z,17.60
2022-08-20T10:40:52.248Z,24.07
2022-08-20T10:43:58.886Z,25.27
2022-08-20T10:47:04.867Z,13.28
2022-08-20T10:50:12.740Z,17.05
2022-08-20T10:53:19.925Z,16.02
2022-08-20T10:56:25.747Z,16.60
2022-08-20T10:59:30.616Z,15.38
2022-08-20T11:02:36.410Z,17.52
2022-08-20T11:05:41.852Z,19.62
2022-08-20T11:08:47.711Z,16.85
2022-08-20T11:11:47.319Z,13.28
2022-08-20T11:17:58.139Z,12.65
2022-08-20T11:21:04.209Z,11.43
2022-08-20T11:24:09.637Z,10.90
2022-08-20T11:27:15.408Z,13.70
2022-08-20T11:30:23.904Z,12.82
2022-08-20T11:33:30.285Z,13.13
2022-08-20T11:36:37.166Z,18.40
2022-08-20T11:39:42.992Z,15.53
2022-08-20T11:43:13.226Z,13.13
2022-08-20T11:45:56.006Z,20.43
2022-08-20T11:49:01.765Z,17.82
2022-08-20T11:52:08.554Z,15.80
2022-08-20T11:55:13.948Z,21.17
2022-08-20T11:58:22.057Z,12.70
2022-08-20T12:01:27.683Z,13.00
2022-08-20T12:04:33.713Z,14.25
2022-08-20T12:07:40.314Z,15.05
2022-08-20T12:10:46.172Z,19.05
2022-08-20T12:13:47.794Z,16.75
2022-08-20T12:16:52.574Z,18.25
2022-08-20T12:19:58.374Z,24.45
2022-08-20T12:23:05.185Z,17.40
2022-08-20T12:26:10.780Z,16.60
2022-08-20T12:29:16.632Z,14.50
2022-08-20T12:32:23.518Z,13.10
2022-08-20T12:35:30.139Z,21.65
2022-08-20T12:38:37.171Z,15.75
2022-08-20T12:41:42.729Z,28.17
2022-08-20T12:44:48.618Z,24.10
2022-08-20T12:47:57.364Z,24.80
2022-08-20T12:50:57.516Z,17.05
2022-08-20T12:53:50.225Z,19.85
2022-08-20T12:56:56.134Z,20.30
2022-08-20T13:00:03.714Z,20.35
2022-08-20T13:03:10.513Z,22.95
2022-08-20T13:06:16.335Z,22.73
2022-08-20T13:09:23.029Z,24.25
2022-08-20T13:12:28.398Z,23.87
2022-08-20T13:15:34.879Z,21.60
2022-08-20T13:18:40.720Z,23.22
2022-08-20T13:21:46.654Z,24.75
2022-08-20T13:24:54.772Z,23.45
2022-08-20T13:28:00.494Z,22.20
2022-08-20T13:31:08.568Z,24.27
2022-08-20T13:34:15.200Z,11.18
2022-08-20T13:37:33.568Z,20.95
2022-08-20T13:40:39.541Z,24.32
2022-08-20T13:43:45.532Z,26.87
2022-08-20T13:46:51.184Z,24.30
2022-08-20T13:49:58.767Z,23.95
2022-08-20T13:53:05.433Z,34.18
2022-08-20T13:56:13.064Z,32.93
2022-08-20T13:59:19.057Z,29.20
2022-08-20T14:02:25.008Z,22.90
2022-08-20T14:05:31.722Z,30.55
2022-08-20T14:08:37.623Z,22.00
2022-08-20T14:11:43.613Z,22.27
2022-08-20T14:14:49.112Z,25.12
2022-08-20T14:17:59.579Z,21.35
2022-08-20T14:24:09.672Z,26.75
2022-08-20T14:27:15.074Z,23.45
2022-08-20T14:30:23.728Z,15.85
2022-08-20T14:33:29.222Z,16.65
2022-08-20T14:36:28.136Z,19.17
2022-08-20T14:39:34.390Z,17.17
2022-08-20T14:42:40.001Z,15.83
2022-08-20T14:45:46.645Z,16.87
2022-08-20T14:48:53.235Z,14.05
2022-08-20T14:52:00.578Z,16.93
2022-08-20T14:55:06.400Z,30.40
2022-08-20T14:58:11.884Z,17.37
2022-08-20T15:01:17.633Z,21.52
2022-08-20T15:04:25.676Z,25.10
2022-08-20T15:07:41.201Z,18.62
2022-08-20T15:10:48.388Z,14.45
2022-08-20T15:13:54.394Z,15.32
2022-08-20T15:17:00.797Z,12.88
2022-08-20T15:20:07.304Z,9.13
2022-08-20T15:23:14.157Z,11.10
2022-08-20T15:26:13.346Z,12.43
2022-08-20T15:29:22.647Z,10.50
2022-08-20T15:32:26.808Z,8.68
2022-08-20T15:35:31.872Z,9.73
2022-08-20T15:38:37.153Z,13.48
2022-08-20T15:41:42.517Z,6.70
2022-08-20T15:44:47.294Z,8.58
2022-08-20T15:48:12.728Z,15.45
2022-08-20T15:51:44.641Z,10.40
2022-08-20T15:54:54.997Z,8.08
2022-08-20T15:58:14.660Z,6.75
2022-08-20T16:01:48.202Z,8.80
2022-08-20T16:05:26.955Z,8.60
2022-08-20T16:08:54.964Z,12.47
2022-08-20T16:12:14.284Z,15.35
2022-08-20T16:15:45.207Z,9.23
2022-08-20T16:18:51.209Z,9.10
2022-08-20T16:21:58.104Z,13.48
2022-08-20T16:24:57.353Z,11.50
2022-08-20T16:28:18.589Z,12.68
2022-08-20T16:31:28.651Z,12.18
2022-08-20T16:34:52.621Z,15.48
2022-08-20T16:38:23.832Z,13.20
2022-08-20T16:44:56.397Z,16.60
2022-08-20T16:48:02.476Z,15.85
2022-08-20T16:51:26.431Z,9.65
2022-08-20T16:54:34.088Z,12.50
2022-08-20T16:57:40.963Z,13.98
2022-08-20T17:00:48.188Z,14.45
2022-08-20T17:03:54.244Z,17.17
2022-08-20T17:07:01.418Z,16.45
2022-08-20T17:10:08.379Z,17.57
2022-08-20T17:13:30.046Z,15.68
2022-08-20T17:16:35.926Z,21.45
2022-08-20T17:19:43.552Z,24.45
2022-08-20T17:22:57.338Z,18.60
2022-08-20T17:26:15.283Z,18.80
2022-08-20T17:29:33.887Z,17.15
2022-08-20T17:32:43.416Z,18.20
2022-08-20T17:35:49.715Z,19.07
2022-08-20T17:39:14.450Z,21.80
2022-08-20T17:42:26.279Z,22.55
2022-08-20T17:45:44.333Z,25.48
2022-08-20T17:49:00.772Z,20.45
2022-08-20T17:52:08.532Z,22.82
2022-08-20T17:55:17.498Z,17.75
2022-08-20T17:58:26.731Z,22.98
2022-08-20T18:01:37.015Z,27.02
2022-08-20T18:04:55.134Z,24.23
2022-08-20T18:08:41.354Z,20.05
2022-08-20T18:11:59.699Z,25.20
2022-08-20T18:15:23.675Z,23.98
2022-08-20T18:18:35.650Z,31.93
2022-08-20T18:22:23.087Z,24.00
2022-08-20T18:25:50.848Z,22.93
2022-08-20T18:29:14.573Z,23.70
2022-08-20T18:32:17.004Z,24.37
2022-08-20T18:35:28.783Z,36.15
2022-08-20T18:41:56.341Z,30.35
2022-08-20T18:45:03.156Z,28.98
2022-08-20T18:48:08.960Z,34.80
2022-08-20T18:51:16.761Z,28.77
2022-08-20T18:54:22.614Z,42.93
2022-08-20T18:57:41.458Z,28.52
2022-08-20T19:00:53.249Z,40.80
2022-08-20T19:04:06.114Z,60.17
2022-08-20T19:07:15.734Z,48.00
2022-08-20T19:10:56.038Z,33.80
2022-08-20T19:14:24.301Z,39.25
2022-08-20T19:17:47.072Z,45.15
2022-08-20T19:20:56.766Z,38.13
2022-08-20T19:24:08.588Z,32.28
2022-08-20T19:27:18.990Z,29.15
2022-08-20T19:33:45.172Z,59.60
2022-08-20T19:36:51.765Z,45.55
2022-08-20T19:39:59.334Z,35.92
2022-08-20T19:43:07.081Z,39.67
2022-08-20T19:46:13.175Z,43.87
2022-08-20T19:49:49.839Z,45.10
2022-08-20T19:53:15.715Z,36.95
2022-08-20T19:56:34.899Z,51.35
2022-08-20T19:59:42.662Z,42.45
2022-08-20T20:02:49.092Z,46.45
2022-08-20T20:06:16.943Z,49.25
2022-08-20T20:09:36.817Z,70.12
2022-08-20T20:12:42.256Z,34.78
2022-08-20T20:15:48.679Z,50.70
2022-08-20T20:19:22.797Z,41.60
2022-08-20T20:22:29.054Z,55.10
2022-08-20T20:25:52.129Z,40.25
2022-08-20T20:29:10.937Z,48.17
2022-08-20T20:32:18.243Z,38.30
2022-08-20T20:35:24.094Z,57.80
2022-08-20T20:38:41.598Z,44.77
2022-08-20T20:41:48.047Z,53.45
2022-08-20T20:44:57.717Z,42.17
2022-08-20T20:48:06.092Z,46.95
2022-08-20T20:51:12.399Z,49.18
2022-08-20T20:54:20.621Z,45.38
2022-08-20T20:57:39.125Z,51.48
2022-08-20T21:00:46.597Z,59.05
2022-08-20T21:03:52.822Z,59.45
2022-08-20T21:06:58.799Z,51.48
2022-08-20T21:10:06.660Z,47.85
2022-08-20T21:13:12.132Z,55.25
2022-08-20T21:16:19.622Z,43.35
2022-08-20T21:19:26.297Z,55.17
2022-08-20T21:22:26.123Z,43.83
2022-08-20T21:25:32.279Z,45.28
2022-08-20T21:28:37.393Z,53.10
2022-08-20T21:31:48.212Z,39.13
2022-08-20T21:34:55.230Z,61.88
2022-08-20T21:38:01.411Z,41.55
2022-08-20T21:41:07.070Z,48.85
2022-08-20T21:44:17.515Z,66.22
2022-08-20T21:47:18.879Z,61.28
2022-08-20T21:53:30.641Z,51.63
2022-08-20T21:56:36.339Z,46.25
2022-08-20T21:59:42.830Z,51.05
2022-08-20T22:02:48.701Z,45.50
2022-08-20T22:05:54.466Z,48.17
2022-08-20T22:09:02.011Z,35.10
2022-08-20T22:12:07.542Z,57.05
2022-08-20T22:15:13.284Z,42.95
2022-08-20T22:18:18.297Z,56.73
2022-08-20T22:21:27.676Z,55.58
2022-08-20T22:24:32.282Z,56.42
2022-08-20T22:27:37.688Z,48.52
2022-08-20T22:30:43.111Z,58.08
2022-08-20T22:33:48.854Z,54.93
2022-08-20T22:36:54.413Z,55.55
2022-08-20T22:40:00.856Z,50.25
2022-08-20T22:43:06.455Z,47.08
2022-08-20T22:46:14.101Z,40.35
2022-08-20T22:49:19.804Z,48.38
2022-08-20T22:52:25.432Z,49.33
2022-08-20T22:55:32.773Z,57.85
2022-08-20T22:58:38.524Z,45.67
2022-08-20T23:01:45.155Z,47.23
2022-08-20T23:04:51.654Z,50.55
2022-08-20T23:07:58.310Z,46.05
2022-08-20T23:11:04.603Z,39.83
2022-08-20T23:14:11.154Z,47.88
2022-08-20T23:17:22.214Z,48.48
2022-08-20T23:20:30.953Z,42.40
2022-08-20T23:23:39.009Z,40.70
2022-08-20T23:26:52.514Z,44.95
2022-08-20T23:29:50.870Z,31.87
2022-08-20T23:32:57.823Z,31.97
2022-08-20T23:36:04.403Z,44.90
2022-08-20T23:39:09.291Z,38.17
2022-08-20T23:42:17.594Z,39.65
2022-08-20T23:45:24.685Z,38.73
2022-08-20T23:48:29.487Z,34.38
2022-08-20T23:51:35.459Z,43.90
2022-08-20T23:54:46.233Z,37.58
2022-08-20T23:57:52.215Z,39.18
